createdAt,value
2023-05-18T00:00:14.874Z,8.06
2023-05-18T00:01:08.903Z,7.99
2023-05-18T00:01:42.458Z,7.96
2023-05-18T00:02:18.893Z,7.98
2023-05-18T00:02:52.405Z,7.95
2023-05-18T00:03:25.949Z,7.92
2023-05-18T00:03:59.465Z,7.91
2023-05-18T00:04:34.835Z,7.89
2023-05-18T00:05:10.632Z,7.88
2023-05-18T00:05:43.965Z,7.87
2023-05-18T00:06:17.770Z,7.87
2023-05-18T00:06:57.576Z,7.87
2023-05-18T00:07:34.395Z,7.87
2023-05-18T00:08:08.747Z,7.87
2023-05-18T00:08:43.071Z,7.87
2023-05-18T00:09:16.254Z,7.88
2023-05-18T00:09:49.572Z,7.89
2023-05-18T00:10:22.862Z,7.89
2023-05-18T00:10:58.035Z,7.91
2023-05-18T00:11:35.023Z,7.91
2023-05-18T00:12:10.297Z,7.91
2023-05-18T00:12:43.693Z,7.92
2023-05-18T00:13:16.992Z,7.92
2023-05-18T00:13:50.323Z,7.92
2023-05-18T00:14:23.718Z,7.93
2023-05-18T00:14:57.230Z,7.94
2023-05-18T00:15:31.090Z,7.94
2023-05-18T00:16:04.747Z,7.95
2023-05-18T00:16:38.169Z,7.96
2023-05-18T00:17:11.632Z,7.96
2023-05-18T00:17:45.976Z,7.96
2023-05-18T00:18:23.879Z,7.97
2023-05-18T00:18:57.209Z,7.98
2023-05-18T00:19:30.657Z,7.98
2023-05-18T00:20:05.503Z,7.98
2023-05-18T00:20:39.119Z,7.99
2023-05-18T00:21:12.549Z,7.99
2023-05-18T00:21:48.052Z,7.99
2023-05-18T00:22:21.367Z,8.00
2023-05-18T00:22:54.746Z,7.99
2023-05-18T00:23:33.250Z,8.00
2023-05-18T00:24:07.115Z,8.00
2023-05-18T00:24:40.649Z,7.99
2023-05-18T00:25:13.838Z,8.00
2023-05-18T00:25:47.422Z,8.00
2023-05-18T00:26:21.137Z,8.01
2023-05-18T00:26:55.117Z,8.02
2023-05-18T00:27:28.372Z,8.02
2023-05-18T00:28:01.797Z,8.02
2023-05-18T00:28:36.332Z,8.03
2023-05-18T00:29:10.592Z,8.04
2023-05-18T00:29:44.002Z,8.03
2023-05-18T00:30:18.798Z,8.04
2023-05-18T00:30:53.303Z,8.05
2023-05-18T00:31:27.474Z,8.05
2023-05-18T00:32:00.874Z,8.04
2023-05-18T00:32:34.293Z,8.03
2023-05-18T00:33:07.726Z,8.05
2023-05-18T00:33:42.341Z,8.05
2023-05-18T00:34:16.246Z,8.05
2023-05-18T00:34:49.660Z,8.05
2023-05-18T00:35:22.993Z,8.04
2023-05-18T00:35:57.724Z,8.04
2023-05-18T00:36:31.855Z,8.04
2023-05-18T00:37:05.099Z,8.04
2023-05-18T00:37:38.252Z,8.03
2023-05-18T00:38:12.418Z,8.02
2023-05-18T00:38:46.323Z,8.00
2023-05-18T00:39:20.598Z,7.98
2023-05-18T00:39:53.907Z,7.97
2023-05-18T00:40:29.256Z,7.96
2023-05-18T00:41:02.718Z,7.94
2023-05-18T00:41:36.497Z,7.93
2023-05-18T00:42:09.819Z,7.93
2023-05-18T00:42:43.128Z,7.92
2023-05-18T00:43:19.340Z,7.94
2023-05-18T00:43:56.328Z,7.93
2023-05-18T00:44:29.656Z,7.92
2023-05-18T00:45:03.094Z,7.89
2023-05-18T00:45:36.592Z,7.86
2023-05-18T00:46:10.349Z,7.86
2023-05-18T00:46:44.500Z,7.86
2023-05-18T00:47:21.124Z,7.85
2023-05-18T00:47:54.539Z,7.83
2023-05-18T00:48:27.941Z,7.83
2023-05-18T00:49:03.499Z,7.83
2023-05-18T00:49:37.524Z,7.83
2023-05-18T00:50:11.308Z,7.82
2023-05-18T00:50:44.958Z,7.82
2023-05-18T00:51:21.612Z,7.82
2023-05-18T00:51:55.792Z,7.80
2023-05-18T00:52:33.538Z,7.80
2023-05-18T00:53:06.935Z,7.80
2023-05-18T00:53:42.080Z,7.81
2023-05-18T00:54:17.155Z,7.81
2023-05-18T00:54:51.753Z,7.80
2023-05-18T00:55:25.204Z,7.81
2023-05-18T00:55:58.900Z,7.81
2023-05-18T00:56:36.710Z,7.82
2023-05-18T00:57:10.210Z,7.82
2023-05-18T00:57:44.767Z,7.82
2023-05-18T00:58:18.096Z,7.82
2023-05-18T00:58:58.063Z,7.83
2023-05-18T00:59:32.909Z,7.82
2023-05-18T01:00:10.882Z,7.83
2023-05-18T01:00:44.272Z,7.82
2023-05-18T01:01:19.642Z,7.83
2023-05-18T01:01:53.189Z,7.82
2023-05-18T01:02:30.735Z,7.81
2023-05-18T01:03:05.055Z,7.81
2023-05-18T01:03:39.555Z,7.80
2023-05-18T01:04:16.102Z,7.79
2023-05-18T01:04:49.565Z,7.79
2023-05-18T01:05:23.015Z,7.80
2023-05-18T01:05:58.340Z,7.78
2023-05-18T01:06:36.369Z,7.79
2023-05-18T01:07:11.401Z,7.78
2023-05-18T01:07:44.871Z,7.79
2023-05-18T01:08:19.891Z,7.79
2023-05-18T01:08:54.893Z,7.80
2023-05-18T01:09:28.301Z,7.81
2023-05-18T01:10:01.686Z,7.81
2023-05-18T01:10:38.360Z,7.83
2023-05-18T01:11:34.100Z,7.83
2023-05-18T01:12:29.859Z,7.82
2023-05-18T01:13:16.298Z,7.80
2023-05-18T01:14:02.339Z,7.79
2023-05-18T01:14:54.652Z,7.79
2023-05-18T01:15:39.838Z,7.78
2023-05-18T01:16:19.482Z,7.77
2023-05-18T01:17:35.741Z,7.78
2023-05-18T01:19:03.146Z,7.76
2023-05-18T01:20:07.850Z,7.72
2023-05-18T01:20:58.296Z,7.71
2023-05-18T01:21:49.884Z,7.72
2023-05-18T01:22:39.272Z,7.72
2023-05-18T01:23:42.874Z,7.71
2023-05-18T01:24:35.824Z,7.68
2023-05-18T01:25:29.939Z,7.66
2023-05-18T01:26:29.967Z,7.65
2023-05-18T01:27:07.181Z,7.65
2023-05-18T01:27:46.455Z,7.65
2023-05-18T01:28:26.644Z,7.65
2023-05-18T01:29:03.515Z,7.64
2023-05-18T01:29:39.356Z,7.63
2023-05-18T01:30:19.461Z,7.63
2023-05-18T01:30:53.886Z,7.64
2023-05-18T01:31:29.098Z,7.64
2023-05-18T01:32:06.978Z,7.65
2023-05-18T01:32:42.683Z,7.64
2023-05-18T01:33:16.126Z,7.65
2023-05-18T01:33:49.341Z,7.65
2023-05-18T01:34:22.532Z,7.65
2023-05-18T01:34:55.935Z,7.67
2023-05-18T01:35:29.481Z,7.68
2023-05-18T01:36:04.840Z,7.70
2023-05-18T01:36:38.010Z,7.72
2023-05-18T01:37:11.357Z,7.72
2023-05-18T01:37:44.732Z,7.72
2023-05-18T01:38:20.048Z,7.69
2023-05-18T01:38:55.274Z,7.68
2023-05-18T01:39:28.745Z,7.67
2023-05-18T01:40:02.541Z,7.66
2023-05-18T01:41:01.186Z,7.65
2023-05-18T01:41:39.400Z,7.62
2023-05-18T01:42:25.285Z,7.61
2023-05-18T01:43:07.277Z,7.60
2023-05-18T01:43:51.352Z,7.59
2023-05-18T01:44:33.175Z,7.58
2023-05-18T01:45:11.416Z,7.58
2023-05-18T01:45:49.992Z,7.57
2023-05-18T01:46:39.442Z,7.58
2023-05-18T01:47:15.130Z,7.57
2023-05-18T01:47:50.313Z,7.56
2023-05-18T01:48:25.770Z,7.58
2023-05-18T01:50:48.286Z,7.54
2023-05-18T01:51:24.537Z,7.50
2023-05-18T01:52:03.830Z,7.50
2023-05-18T01:52:46.124Z,7.50
2023-05-18T01:53:35.690Z,7.50
2023-05-18T01:54:11.695Z,7.49
2023-05-18T01:54:50.294Z,7.50
2023-05-18T01:55:24.561Z,7.49
2023-05-18T01:55:59.735Z,7.48
2023-05-18T01:56:35.206Z,7.49
2023-05-18T01:57:09.811Z,7.50
2023-05-18T01:57:45.932Z,7.50
2023-05-18T01:58:23.066Z,7.50
2023-05-18T01:58:57.849Z,7.52
2023-05-18T01:59:31.260Z,7.53
2023-05-18T02:00:08.125Z,7.53
2023-05-18T02:00:50.677Z,7.52
2023-05-18T02:01:24.475Z,7.52
2023-05-18T02:02:01.654Z,7.54
2023-05-18T02:02:36.382Z,7.55
2023-05-18T02:03:09.932Z,7.56
2023-05-18T02:03:44.465Z,7.56
2023-05-18T02:04:17.893Z,7.57
2023-05-18T02:04:51.538Z,7.58
2023-05-18T02:05:24.786Z,7.59
2023-05-18T02:05:58.048Z,7.60
2023-05-18T02:06:32.119Z,7.61
2023-05-18T02:07:05.387Z,7.62
2023-05-18T02:07:39.661Z,7.62
2023-05-18T02:08:13.224Z,7.64
2023-05-18T02:08:46.738Z,7.65
2023-05-18T02:09:23.228Z,7.66
2023-05-18T02:09:57.263Z,7.65
2023-05-18T02:10:30.509Z,7.65
2023-05-18T02:11:04.036Z,7.67
2023-05-18T02:11:37.214Z,7.67
2023-05-18T02:12:11.308Z,7.67
2023-05-18T02:12:44.576Z,7.67
2023-05-18T02:13:17.805Z,7.66
2023-05-18T02:13:51.140Z,7.67
2023-05-18T02:14:24.504Z,7.67
2023-05-18T02:14:58.663Z,7.67
2023-05-18T02:15:32.015Z,7.68
2023-05-18T02:16:05.831Z,7.69
2023-05-18T02:16:39.249Z,7.69
2023-05-18T02:17:12.617Z,7.69
2023-05-18T02:17:46.404Z,7.69
2023-05-18T02:18:19.634Z,7.69
2023-05-18T02:18:53.774Z,7.68
2023-05-18T02:19:27.175Z,7.69
2023-05-18T02:20:00.585Z,7.69
2023-05-18T02:20:33.973Z,7.70
2023-05-18T02:21:09.516Z,7.69
2023-05-18T02:21:43.778Z,7.69
2023-05-18T02:22:16.923Z,7.69
2023-05-18T02:22:50.240Z,7.70
2023-05-18T02:23:23.565Z,7.69
2023-05-18T02:23:56.880Z,7.70
2023-05-18T02:24:30.070Z,7.69
2023-05-18T02:25:05.442Z,7.70
2023-05-18T02:25:39.018Z,7.70
2023-05-18T02:26:12.333Z,7.69
2023-05-18T02:26:45.548Z,7.69
2023-05-18T02:27:19.015Z,7.69
2023-05-18T02:27:54.902Z,7.69
2023-05-18T02:28:28.176Z,7.69
2023-05-18T02:29:01.584Z,7.69
2023-05-18T02:29:36.476Z,7.70
2023-05-18T02:30:10.184Z,7.70
2023-05-18T02:30:43.839Z,7.70
2023-05-18T02:31:17.310Z,7.69
2023-05-18T02:31:51.135Z,7.69
2023-05-18T02:32:24.534Z,7.69
2023-05-18T02:32:57.862Z,7.69
2023-05-18T02:33:39.919Z,7.69
2023-05-18T02:34:15.594Z,7.69
2023-05-18T02:34:53.035Z,7.68
2023-05-18T02:35:26.944Z,7.68
2023-05-18T02:36:00.341Z,7.68
2023-05-18T02:36:40.476Z,7.68
2023-05-18T02:37:14.749Z,7.67
2023-05-18T02:37:50.247Z,7.68
2023-05-18T02:38:23.433Z,7.68
2023-05-18T02:38:57.387Z,7.69
2023-05-18T02:39:31.412Z,7.70
2023-05-18T02:40:05.975Z,7.71
2023-05-18T02:40:39.203Z,7.70
2023-05-18T02:41:12.551Z,7.71
2023-05-18T02:41:46.007Z,7.72
2023-05-18T02:42:19.272Z,7.71
2023-05-18T02:42:52.591Z,7.71
2023-05-18T02:43:26.046Z,7.71
2023-05-18T02:43:59.389Z,7.71
2023-05-18T02:44:32.982Z,7.71
2023-05-18T02:45:07.412Z,7.71
2023-05-18T02:45:41.086Z,7.72
2023-05-18T02:46:14.453Z,7.72
2023-05-18T02:46:47.669Z,7.72
2023-05-18T02:47:20.830Z,7.73
2023-05-18T02:47:54.372Z,7.73
2023-05-18T02:48:27.853Z,7.73
2023-05-18T02:49:01.375Z,7.74
2023-05-18T02:49:34.772Z,7.73
2023-05-18T02:50:08.430Z,7.72
2023-05-18T02:50:44.187Z,7.73
2023-05-18T02:51:17.547Z,7.72
2023-05-18T02:51:51.103Z,7.73
2023-05-18T02:52:24.521Z,7.73
2023-05-18T02:52:57.775Z,7.72
2023-05-18T02:53:31.377Z,7.72
2023-05-18T02:54:08.903Z,7.72
2023-05-18T02:54:44.564Z,7.70
2023-05-18T02:55:21.631Z,7.69
2023-05-18T02:56:10.486Z,7.68
2023-05-18T02:56:50.613Z,7.67
2023-05-18T02:57:47.050Z,7.65
2023-05-18T02:58:25.642Z,7.64
2023-05-18T02:59:14.369Z,7.63
2023-05-18T02:59:49.419Z,7.63
2023-05-18T03:00:24.175Z,7.64
2023-05-18T03:01:00.005Z,7.64
2023-05-18T03:01:37.426Z,7.64
2023-05-18T03:02:14.638Z,7.64
2023-05-18T03:02:48.714Z,7.64
2023-05-18T03:03:24.193Z,7.64
2023-05-18T03:03:58.011Z,7.64
2023-05-18T03:04:32.137Z,7.65
2023-05-18T03:05:06.117Z,7.66
2023-05-18T03:05:39.482Z,7.65
2023-05-18T03:06:14.303Z,7.65
2023-05-18T03:06:47.814Z,7.65
2023-05-18T03:07:21.574Z,7.66
2023-05-18T03:07:54.966Z,7.65
2023-05-18T03:08:29.073Z,7.67
2023-05-18T03:09:02.331Z,7.67
2023-05-18T03:09:42.344Z,7.67
2023-05-18T03:10:15.982Z,7.68
2023-05-18T03:10:50.568Z,7.68
2023-05-18T03:11:24.515Z,7.69
2023-05-18T03:11:57.800Z,7.69
2023-05-18T03:12:31.739Z,7.69
2023-05-18T03:13:05.435Z,7.71
2023-05-18T03:13:38.778Z,7.71
2023-05-18T03:14:26.149Z,7.72
2023-05-18T03:15:01.162Z,7.72
2023-05-18T03:15:35.049Z,7.71
2023-05-18T03:16:08.290Z,7.73
2023-05-18T03:16:41.739Z,7.73
2023-05-18T03:17:18.280Z,7.74
2023-05-18T03:17:52.066Z,7.75
2023-05-18T03:18:25.914Z,7.76
2023-05-18T03:19:02.427Z,7.75
2023-05-18T03:19:39.973Z,7.76
2023-05-18T03:20:15.626Z,7.76
2023-05-18T03:20:52.274Z,7.75
2023-05-18T03:21:25.661Z,7.76
2023-05-18T03:21:58.911Z,7.75
2023-05-18T03:22:32.325Z,7.74
2023-05-18T03:23:06.806Z,7.74
2023-05-18T03:23:41.044Z,7.74
2023-05-18T03:24:14.760Z,7.74
2023-05-18T03:24:51.454Z,7.74
2023-05-18T03:25:25.792Z,7.74
2023-05-18T03:25:59.151Z,7.75
2023-05-18T03:26:34.131Z,7.72
2023-05-18T03:27:07.698Z,7.71
2023-05-18T03:27:40.982Z,7.72
2023-05-18T03:28:14.345Z,7.71
2023-05-18T03:28:47.734Z,7.73
2023-05-18T03:29:21.750Z,7.70
2023-05-18T03:29:56.471Z,7.68
2023-05-18T03:30:31.389Z,7.69
2023-05-18T03:31:04.945Z,7.67
2023-05-18T03:31:38.454Z,7.65
2023-05-18T03:32:11.728Z,7.63
2023-05-18T03:32:45.565Z,7.62
2023-05-18T03:33:19.838Z,7.61
2023-05-18T03:33:53.205Z,7.60
2023-05-18T03:34:26.480Z,7.60
2023-05-18T03:35:01.298Z,7.58
2023-05-18T03:35:35.013Z,7.58
2023-05-18T03:36:08.454Z,7.58
2023-05-18T03:36:42.654Z,7.60
2023-05-18T03:37:16.465Z,7.59
2023-05-18T03:37:50.805Z,7.58
2023-05-18T03:38:24.059Z,7.61
2023-05-18T03:39:02.899Z,7.61
2023-05-18T03:39:36.365Z,7.58
2023-05-18T03:40:15.166Z,7.56
2023-05-18T03:40:48.968Z,7.57
2023-05-18T03:41:22.345Z,7.57
2023-05-18T03:41:55.741Z,7.54
2023-05-18T03:42:29.030Z,7.54
2023-05-18T03:43:02.701Z,7.53
2023-05-18T03:43:36.519Z,7.52
2023-05-18T03:44:09.766Z,7.52
2023-05-18T03:44:43.466Z,7.53
2023-05-18T03:45:18.042Z,7.55
2023-05-18T03:45:53.338Z,7.57
2023-05-18T03:46:26.884Z,7.54
2023-05-18T03:47:00.208Z,7.53
2023-05-18T03:47:33.948Z,7.52
2023-05-18T03:48:07.343Z,7.52
2023-05-18T03:48:41.068Z,7.52
2023-05-18T03:49:14.453Z,7.52
2023-05-18T03:49:48.619Z,7.53
2023-05-18T03:50:22.006Z,7.53
2023-05-18T03:50:55.811Z,7.54
2023-05-18T03:51:29.563Z,7.54
2023-05-18T03:52:04.828Z,7.55
2023-05-18T03:52:38.126Z,7.57
2023-05-18T03:53:13.507Z,7.57
2023-05-18T03:53:47.274Z,7.58
2023-05-18T03:54:21.367Z,7.59
2023-05-18T03:54:54.721Z,7.61
2023-05-18T03:55:28.116Z,7.62
2023-05-18T03:56:01.489Z,7.63
2023-05-18T03:56:34.900Z,7.63
2023-05-18T03:57:08.990Z,7.64
2023-05-18T03:57:42.279Z,7.64
2023-05-18T03:58:16.688Z,7.64
2023-05-18T03:58:51.653Z,7.65
2023-05-18T03:59:24.939Z,7.66
2023-05-18T03:59:58.636Z,7.67
2023-05-18T04:00:32.464Z,7.67
2023-05-18T04:01:05.742Z,7.68
2023-05-18T04:01:42.461Z,7.69
2023-05-18T04:02:16.915Z,7.69
2023-05-18T04:02:52.147Z,7.70
2023-05-18T04:03:27.644Z,7.71
2023-05-18T04:04:01.203Z,7.70
2023-05-18T04:04:34.556Z,7.70
2023-05-18T04:05:08.384Z,7.69
2023-05-18T04:05:46.224Z,7.69
2023-05-18T04:06:22.720Z,7.68
2023-05-18T04:06:56.082Z,7.68
2023-05-18T04:07:29.335Z,7.69
2023-05-18T04:08:02.702Z,7.69
2023-05-18T04:08:37.028Z,7.71
2023-05-18T04:09:10.274Z,7.71
2023-05-18T04:09:44.355Z,7.72
2023-05-18T04:10:19.795Z,7.73
2023-05-18T04:10:53.253Z,7.74
2023-05-18T04:11:26.525Z,7.75
2023-05-18T04:11:59.806Z,7.76
2023-05-18T04:12:34.020Z,7.77
2023-05-18T04:13:07.366Z,7.79
2023-05-18T04:13:42.119Z,7.79
2023-05-18T04:14:17.248Z,7.78
2023-05-18T04:14:51.319Z,7.78
2023-05-18T04:15:24.617Z,7.78
2023-05-18T04:15:58.684Z,7.79
2023-05-18T04:16:32.387Z,7.79
2023-05-18T04:17:06.737Z,7.80
2023-05-18T04:17:43.718Z,7.80
2023-05-18T04:18:17.372Z,7.83
2023-05-18T04:18:50.841Z,7.83
2023-05-18T04:19:24.272Z,7.83
2023-05-18T04:19:57.584Z,7.86
2023-05-18T04:20:30.931Z,7.87
2023-05-18T04:21:06.583Z,7.89
2023-05-18T04:21:43.800Z,7.91
2023-05-18T04:22:17.197Z,7.91
2023-05-18T04:22:51.461Z,7.92
2023-05-18T04:23:24.637Z,7.91
2023-05-18T04:23:59.936Z,7.89
2023-05-18T04:24:34.739Z,7.89
2023-05-18T04:25:11.818Z,7.88
2023-05-18T04:25:45.057Z,7.88
2023-05-18T04:26:20.406Z,7.89
2023-05-18T04:26:54.109Z,7.89
2023-05-18T04:27:27.375Z,7.89
2023-05-18T04:28:01.874Z,7.90
2023-05-18T04:28:35.376Z,7.90
2023-05-18T04:29:11.095Z,7.90
2023-05-18T04:29:44.354Z,7.92
2023-05-18T04:30:19.107Z,7.92
2023-05-18T04:30:53.006Z,7.94
2023-05-18T04:31:28.072Z,7.95
2023-05-18T04:32:01.464Z,7.97
2023-05-18T04:32:36.717Z,7.97
2023-05-18T04:33:10.949Z,8.00
2023-05-18T04:33:46.885Z,8.04
2023-05-18T04:34:20.390Z,8.02
2023-05-18T04:34:55.046Z,8.02
2023-05-18T04:35:28.574Z,8.04
2023-05-18T04:36:05.295Z,8.02
2023-05-18T04:36:41.095Z,8.00
2023-05-18T04:37:18.101Z,8.00
2023-05-18T04:37:52.180Z,8.00
2023-05-18T04:38:26.519Z,8.00
2023-05-18T04:39:00.066Z,8.01
2023-05-18T04:39:34.895Z,8.03
2023-05-18T04:40:17.550Z,8.05
2023-05-18T04:40:52.338Z,8.05
2023-05-18T04:41:26.158Z,8.05
2023-05-18T04:41:59.366Z,8.07
2023-05-18T04:42:37.407Z,8.07
2023-05-18T04:43:10.863Z,8.08
2023-05-18T04:43:44.649Z,8.09
2023-05-18T04:44:18.502Z,8.10
2023-05-18T04:44:52.410Z,8.08
2023-05-18T04:45:26.394Z,8.07
2023-05-18T04:46:01.233Z,8.08
2023-05-18T04:46:35.609Z,8.08
2023-05-18T04:47:09.318Z,8.13
2023-05-18T04:47:46.843Z,8.16
2023-05-18T04:48:22.190Z,8.13
2023-05-18T04:48:58.248Z,8.13
2023-05-18T04:49:33.304Z,8.14
2023-05-18T04:50:06.970Z,8.13
2023-05-18T04:50:57.044Z,8.10
2023-05-18T04:51:30.634Z,8.10
2023-05-18T04:52:06.804Z,8.09
2023-05-18T04:52:41.885Z,8.10
2023-05-18T04:53:18.403Z,8.10
2023-05-18T04:53:55.941Z,8.12
2023-05-18T04:54:32.846Z,8.13
2023-05-18T04:55:07.024Z,8.14
2023-05-18T04:55:40.332Z,8.17
2023-05-18T04:56:18.149Z,8.17
2023-05-18T04:56:53.139Z,8.16
2023-05-18T04:57:26.863Z,8.18
2023-05-18T04:58:01.560Z,8.20
2023-05-18T04:58:35.819Z,8.22
2023-05-18T04:59:09.720Z,8.25
2023-05-18T04:59:47.485Z,8.23
2023-05-18T05:00:21.105Z,8.20
2023-05-18T05:00:55.472Z,8.20
2023-05-18T05:01:28.820Z,8.22
2023-05-18T05:02:02.276Z,8.22
2023-05-18T05:02:36.057Z,8.25
2023-05-18T05:03:10.903Z,8.27
2023-05-18T05:03:45.693Z,8.25
2023-05-18T05:04:21.057Z,8.25
2023-05-18T05:04:54.479Z,8.26
2023-05-18T05:05:27.986Z,8.27
2023-05-18T05:06:01.424Z,8.31
2023-05-18T05:06:34.825Z,8.32
2023-05-18T05:07:08.628Z,8.33
2023-05-18T05:07:42.099Z,8.33
2023-05-18T05:08:16.432Z,8.35
2023-05-18T05:08:49.731Z,8.35
2023-05-18T05:09:23.651Z,8.36
2023-05-18T05:09:57.462Z,8.38
2023-05-18T05:10:31.097Z,8.41
2023-05-18T05:11:04.815Z,8.42
2023-05-18T05:11:38.100Z,8.41
2023-05-18T05:12:11.530Z,8.45
2023-05-18T05:12:45.700Z,8.47
2023-05-18T05:13:20.705Z,8.44
2023-05-18T05:13:54.022Z,8.42
2023-05-18T05:14:27.269Z,8.42
2023-05-18T05:15:00.673Z,8.42
2023-05-18T05:15:34.412Z,8.46
2023-05-18T05:16:07.764Z,8.48
2023-05-18T05:16:41.344Z,8.50
2023-05-18T05:17:14.635Z,8.53
2023-05-18T05:17:48.562Z,8.56
2023-05-18T05:18:22.065Z,8.56
2023-05-18T05:18:55.394Z,8.55
2023-05-18T05:19:28.762Z,8.57
2023-05-18T05:20:02.090Z,8.55
2023-05-18T05:20:35.645Z,8.56
2023-05-18T05:21:11.057Z,8.56
2023-05-18T05:21:45.067Z,8.56
2023-05-18T05:22:19.928Z,8.58
2023-05-18T05:22:53.284Z,8.60
2023-05-18T05:23:29.930Z,8.63
2023-05-18T05:24:06.278Z,8.69
2023-05-18T05:24:39.814Z,8.66
2023-05-18T05:25:13.159Z,8.67
2023-05-18T05:25:46.459Z,8.68
2023-05-18T05:26:20.412Z,8.69
2023-05-18T05:26:53.714Z,8.73
2023-05-18T05:27:27.121Z,8.77
2023-05-18T05:28:00.397Z,8.77
2023-05-18T05:28:33.647Z,8.75
2023-05-18T05:29:07.076Z,8.78
2023-05-18T05:29:40.306Z,8.76
2023-05-18T05:30:14.483Z,8.73
2023-05-18T05:30:49.356Z,8.72
2023-05-18T05:31:22.722Z,8.75
2023-05-18T05:31:56.260Z,8.75
2023-05-18T05:32:29.799Z,8.76
2023-05-18T05:33:03.273Z,8.77
2023-05-18T05:33:37.156Z,8.80
2023-05-18T05:34:12.122Z,8.79
2023-05-18T05:34:59.139Z,8.76
2023-05-18T05:35:33.694Z,8.81
2023-05-18T05:36:08.707Z,8.81
2023-05-18T05:36:42.071Z,8.79
2023-05-18T05:37:15.316Z,8.78
2023-05-18T05:37:48.820Z,8.74
2023-05-18T05:38:22.761Z,8.76
2023-05-18T05:38:56.127Z,8.78
2023-05-18T05:39:29.324Z,8.76
2023-05-18T05:40:03.486Z,8.75
2023-05-18T05:40:39.513Z,8.75
2023-05-18T05:41:12.878Z,8.79
2023-05-18T05:41:46.859Z,8.78
2023-05-18T05:42:20.446Z,8.76
2023-05-18T05:42:53.796Z,8.75
2023-05-18T05:43:27.129Z,8.76
2023-05-18T05:44:00.510Z,8.76
2023-05-18T05:44:34.502Z,8.77
2023-05-18T05:45:09.084Z,8.77
2023-05-18T05:45:49.466Z,8.78
2023-05-18T05:46:24.764Z,8.80
2023-05-18T05:46:58.980Z,8.80
2023-05-18T05:47:32.542Z,8.79
2023-05-18T05:48:06.538Z,8.80
2023-05-18T05:48:40.992Z,8.82
2023-05-18T05:49:14.816Z,8.84
2023-05-18T05:49:48.236Z,8.85
2023-05-18T05:50:21.583Z,8.85
2023-05-18T05:50:56.343Z,8.86
2023-05-18T05:51:29.766Z,8.86
2023-05-18T05:52:03.429Z,8.90
2023-05-18T05:52:36.903Z,8.93
2023-05-18T05:53:11.469Z,8.97
2023-05-18T05:53:47.728Z,9.00
2023-05-18T05:54:21.897Z,9.00
2023-05-18T05:54:56.092Z,8.96
2023-05-18T05:55:29.548Z,8.93
2023-05-18T05:56:03.088Z,8.91
2023-05-18T05:56:37.250Z,8.91
2023-05-18T05:57:10.559Z,8.93
2023-05-18T05:57:44.977Z,8.96
2023-05-18T05:58:18.345Z,8.99
2023-05-18T05:58:56.463Z,9.05
2023-05-18T05:59:29.723Z,9.11
2023-05-18T06:00:05.176Z,9.04
2023-05-18T06:00:54.083Z,9.00
2023-05-18T06:01:27.815Z,8.99
2023-05-18T06:02:01.167Z,9.00
2023-05-18T06:02:34.593Z,8.99
2023-05-18T06:03:08.533Z,8.96
2023-05-18T06:03:45.461Z,8.94
2023-05-18T06:04:19.436Z,8.94
2023-05-18T06:04:52.772Z,8.96
2023-05-18T06:05:26.798Z,8.99
2023-05-18T06:06:00.233Z,8.97
2023-05-18T06:06:34.336Z,9.00
2023-05-18T06:07:07.639Z,9.01
2023-05-18T06:07:41.019Z,9.01
2023-05-18T06:08:14.214Z,9.04
2023-05-18T06:08:47.676Z,9.04
2023-05-18T06:09:23.204Z,9.09
2023-05-18T06:09:56.459Z,9.12
2023-05-18T06:10:29.785Z,9.11
2023-05-18T06:11:03.120Z,9.08
2023-05-18T06:11:36.664Z,9.08
2023-05-18T06:12:10.328Z,9.08
2023-05-18T06:12:44.442Z,9.10
2023-05-18T06:13:17.969Z,9.13
2023-05-18T06:14:00.361Z,9.09
2023-05-18T06:14:33.733Z,9.07
2023-05-18T06:15:07.807Z,9.09
2023-05-18T06:15:42.080Z,9.10
2023-05-18T06:16:15.457Z,9.09
2023-05-18T06:16:48.912Z,9.05
2023-05-18T06:17:22.368Z,9.04
2023-05-18T06:17:56.151Z,9.03
2023-05-18T06:18:29.688Z,9.08
2023-05-18T06:19:07.561Z,9.10
2023-05-18T06:19:41.343Z,9.09
2023-05-18T06:20:14.889Z,9.09
2023-05-18T06:20:48.087Z,9.09
2023-05-18T06:21:22.130Z,9.10
2023-05-18T06:21:55.277Z,9.13
2023-05-18T06:22:29.929Z,9.18
2023-05-18T06:23:29.594Z,9.15
2023-05-18T06:24:23.188Z,9.10
2023-05-18T06:25:22.509Z,9.08
2023-05-18T06:26:08.431Z,9.06
2023-05-18T06:27:12.425Z,9.09
2023-05-18T06:28:05.421Z,9.11
2023-05-18T06:28:48.808Z,9.10
2023-05-18T06:29:31.534Z,9.10
2023-05-18T06:30:14.219Z,9.11
2023-05-18T06:31:19.656Z,9.09
2023-05-18T06:31:57.745Z,9.10
2023-05-18T06:32:41.841Z,9.08
2023-05-18T06:33:15.399Z,9.07
2023-05-18T06:33:49.006Z,9.12
2023-05-18T06:34:22.272Z,9.10
2023-05-18T06:34:56.677Z,9.13
2023-05-18T06:35:30.172Z,9.13
2023-05-18T06:36:03.798Z,9.18
2023-05-18T06:36:38.224Z,9.20
2023-05-18T06:37:11.806Z,9.20
2023-05-18T06:37:46.916Z,9.22
2023-05-18T06:38:20.821Z,9.22
2023-05-18T06:38:54.862Z,9.23
2023-05-18T06:39:28.642Z,9.26
2023-05-18T06:40:01.991Z,9.25
2023-05-18T06:40:35.661Z,9.27
2023-05-18T06:41:09.630Z,9.30
2023-05-18T06:41:45.130Z,9.38
2023-05-18T06:42:25.258Z,9.33
2023-05-18T06:43:07.450Z,9.30
2023-05-18T06:43:50.832Z,9.33
2023-05-18T06:44:32.595Z,9.41
2023-05-18T06:45:14.215Z,9.43
2023-05-18T06:45:57.101Z,9.49
2023-05-18T06:46:43.117Z,9.40
2023-05-18T06:47:25.281Z,9.36
2023-05-18T06:47:59.182Z,9.35
2023-05-18T06:48:32.456Z,9.35
2023-05-18T06:49:05.754Z,9.35
2023-05-18T06:49:39.224Z,9.38
2023-05-18T06:50:12.652Z,9.39
2023-05-18T06:50:46.019Z,9.48
2023-05-18T06:51:19.959Z,9.44
2023-05-18T06:51:53.319Z,9.48
2023-05-18T06:52:27.203Z,9.49
2023-05-18T06:53:02.640Z,9.53
2023-05-18T06:53:36.659Z,9.56
2023-05-18T06:54:10.682Z,9.55
2023-05-18T06:54:44.167Z,9.58
2023-05-18T06:55:17.692Z,9.62
2023-05-18T06:55:50.964Z,9.64
2023-05-18T06:56:24.200Z,9.64
2023-05-18T06:56:58.287Z,9.63
2023-05-18T06:57:32.153Z,9.66
2023-05-18T06:58:05.475Z,9.70
2023-05-18T06:58:42.709Z,9.73
2023-05-18T06:59:16.224Z,9.72
2023-05-18T06:59:54.098Z,9.78
2023-05-18T07:00:28.800Z,9.82
2023-05-18T07:01:03.032Z,9.84
2023-05-18T07:01:37.014Z,9.82
2023-05-18T07:02:10.957Z,9.80
2023-05-18T07:02:45.999Z,9.84
2023-05-18T07:03:19.554Z,9.86
2023-05-18T07:03:53.029Z,9.92
2023-05-18T07:04:26.645Z,9.93
2023-05-18T07:05:01.413Z,9.94
2023-05-18T07:05:36.873Z,9.93
2023-05-18T07:06:11.891Z,9.92
2023-05-18T07:06:46.637Z,9.93
2023-05-18T07:07:20.439Z,9.95
2023-05-18T07:07:53.825Z,9.91
2023-05-18T07:08:27.158Z,9.91
2023-05-18T07:09:00.443Z,9.95
2023-05-18T07:09:33.729Z,9.99
2023-05-18T07:10:07.700Z,10.03
2023-05-18T07:10:41.413Z,10.07
2023-05-18T07:11:15.019Z,10.09
2023-05-18T07:11:48.748Z,10.14
2023-05-18T07:12:22.754Z,10.15
2023-05-18T07:12:56.451Z,10.18
2023-05-18T07:13:29.902Z,10.21
2023-05-18T07:14:03.552Z,10.24
2023-05-18T07:14:37.001Z,10.28
2023-05-18T07:15:11.787Z,10.29
2023-05-18T07:15:45.119Z,10.34
2023-05-18T07:16:18.353Z,10.35
2023-05-18T07:16:51.626Z,10.37
2023-05-18T07:17:24.827Z,10.39
2023-05-18T07:17:58.205Z,10.38
2023-05-18T07:18:31.597Z,10.42
2023-05-18T07:19:05.164Z,10.43
2023-05-18T07:19:38.410Z,10.38
2023-05-18T07:20:12.021Z,10.39
2023-05-18T07:20:45.248Z,10.38
2023-05-18T07:21:18.599Z,10.45
2023-05-18T07:21:52.076Z,10.46
2023-05-18T07:22:25.525Z,10.52
2023-05-18T07:22:58.726Z,10.51
2023-05-18T07:23:31.986Z,10.56
2023-05-18T07:24:05.835Z,10.53
2023-05-18T07:24:39.067Z,10.49
2023-05-18T07:25:12.254Z,10.51
2023-05-18T07:25:45.560Z,10.53
2023-05-18T07:26:19.840Z,10.56
2023-05-18T07:26:53.160Z,10.63
2023-05-18T07:27:29.732Z,10.65
2023-05-18T07:28:03.143Z,10.62
2023-05-18T07:28:36.510Z,10.63
2023-05-18T07:29:09.955Z,10.66
2023-05-18T07:29:43.322Z,10.67
2023-05-18T07:30:16.809Z,10.62
2023-05-18T07:30:50.037Z,10.58
2023-05-18T07:31:23.453Z,10.56
2023-05-18T07:31:57.099Z,10.53
2023-05-18T07:32:30.452Z,10.55
2023-05-18T07:33:04.801Z,10.59
2023-05-18T07:33:40.423Z,10.64
2023-05-18T07:34:14.366Z,10.66
2023-05-18T07:34:47.802Z,10.67
2023-05-18T07:35:22.133Z,10.73
2023-05-18T07:35:55.971Z,10.74
2023-05-18T07:36:29.220Z,10.83
2023-05-18T07:37:03.290Z,10.86
2023-05-18T07:37:36.990Z,10.89
2023-05-18T07:38:10.207Z,10.92
2023-05-18T07:38:44.416Z,10.88
2023-05-18T07:39:20.393Z,10.90
2023-05-18T07:39:53.722Z,10.79
2023-05-18T07:40:27.142Z,10.76
2023-05-18T07:41:00.547Z,10.81
2023-05-18T07:41:34.207Z,10.84
2023-05-18T07:42:09.099Z,10.85
2023-05-18T07:42:43.652Z,10.82
2023-05-18T07:43:16.849Z,10.80
2023-05-18T07:43:51.335Z,10.75
2023-05-18T07:44:25.302Z,10.76
2023-05-18T07:44:58.506Z,10.83
2023-05-18T07:45:32.150Z,10.79
2023-05-18T07:46:05.747Z,10.77
2023-05-18T07:46:39.021Z,10.82
2023-05-18T07:47:12.493Z,10.86
2023-05-18T07:47:45.799Z,10.82
2023-05-18T07:48:18.993Z,10.85
2023-05-18T07:48:52.308Z,10.83
2023-05-18T07:49:26.170Z,10.77
2023-05-18T07:49:59.726Z,10.74
2023-05-18T07:50:34.882Z,10.76
2023-05-18T07:51:08.300Z,10.76